sensor_id;sensor_type;location;lat;lon;timestamp;P1;durP1;ratioP1;P2;durP2;ratioP2
6667;SDS011;3370;47.712;9.082;2023-02-07T00:01:19;14.03;;;10.70;;
6667;SDS011;3370;47.712;9.082;2023-02-07T00:03:46;14.57;;;10.83;;
6667;SDS011;3370;47.712;9.082;2023-02-07T00:06:13;16.33;;;9.80;;
6667;SDS011;3370;47.712;9.082;2023-02-07T00:08:42;18.43;;;10.43;;
6667;SDS011;3370;47.712;9.082;2023-02-07T00:11:10;17.47;;;10.87;;
6667;SDS011;3370;47.712;9.082;2023-02-07T00:13:44;15.10;;;10.20;;
6667;SDS011;3370;47.712;9.082;2023-02-07T00:16:11;12.17;;;9.40;;
6667;SDS011;3370;47.712;9.082;2023-02-07T00:18:37;11.30;;;9.80;;
6667;SDS011;3370;47.712;9.082;2023-02-07T00:21:05;15.27;;;9.60;;
6667;SDS011;3370;47.712;9.082;2023-02-07T00:23:34;13.10;;;9.70;;
6667;SDS011;3370;47.712;9.082;2023-02-07T00:26:01;12.23;;;9.33;;
6667;SDS011;3370;47.712;9.082;2023-02-07T00:28:28;12.30;;;9.20;;
6667;SDS011;3370;47.712;9.082;2023-02-07T00:31:01;12.67;;;9.30;;
6667;SDS011;3370;47.712;9.082;2023-02-07T00:33:33;14.33;;;8.97;;
6667;SDS011;3370;47.712;9.082;2023-02-07T00:36:02;13.23;;;9.80;;
6667;SDS011;3370;47.712;9.082;2023-02-07T00:38:32;16.43;;;10.30;;
6667;SDS011;3370;47.712;9.082;2023-02-07T00:40:58;13.73;;;10.67;;
6667;SDS011;3370;47.712;9.082;2023-02-07T00:43:25;17.30;;;10.73;;
6667;SDS011;3370;47.712;9.082;2023-02-07T00:45:52;18.97;;;12.57;;
6667;SDS011;3370;47.712;9.082;2023-02-07T00:48:17;15.90;;;11.83;;
6667;SDS011;3370;47.712;9.082;2023-02-07T00:50:43;18.93;;;11.40;;
6667;SDS011;3370;47.712;9.082;2023-02-07T00:53:09;14.43;;;11.27;;
6667;SDS011;3370;47.712;9.082;2023-02-07T00:55:35;20.27;;;12.73;;
6667;SDS011;3370;47.712;9.082;2023-02-07T00:58:00;25.00;;;13.57;;
6667;SDS011;3370;47.712;9.082;2023-02-07T01:00:26;20.13;;;12.63;;
6667;SDS011;3370;47.712;9.082;2023-02-07T01:02:52;15.13;;;12.20;;
6667;SDS011;3370;47.712;9.082;2023-02-07T01:05:18;17.70;;;12.03;;
6667;SDS011;3370;47.712;9.082;2023-02-07T01:07:44;22.57;;;12.70;;
6667;SDS011;3370;47.712;9.082;2023-02-07T01:10:10;15.63;;;12.13;;
6667;SDS011;3370;47.712;9.082;2023-02-07T01:12:35;17.90;;;12.60;;
6667;SDS011;3370;47.712;9.082;2023-02-07T01:15:02;20.50;;;12.50;;
6667;SDS011;3370;47.712;9.082;2023-02-07T01:17:29;17.10;;;12.90;;
6667;SDS011;3370;47.712;9.082;2023-02-07T01:19:58;18.53;;;12.40;;
6667;SDS011;3370;47.712;9.082;2023-02-07T01:22:25;21.13;;;13.77;;
6667;SDS011;3370;47.712;9.082;2023-02-07T01:24:54;19.13;;;12.83;;
6667;SDS011;3370;47.712;9.082;2023-02-07T01:27:22;19.80;;;14.13;;
6667;SDS011;3370;47.712;9.082;2023-02-07T01:29:49;19.63;;;12.50;;
6667;SDS011;3370;47.712;9.082;2023-02-07T01:32:15;24.80;;;15.07;;
6667;SDS011;3370;47.712;9.082;2023-02-07T01:34:41;14.73;;;12.00;;
6667;SDS011;3370;47.712;9.082;2023-02-07T01:37:07;18.13;;;12.73;;
6667;SDS011;3370;47.712;9.082;2023-02-07T01:39:33;20.47;;;13.37;;
6667;SDS011;3370;47.712;9.082;2023-02-07T01:41:59;22.53;;;13.70;;
6667;SDS011;3370;47.712;9.082;2023-02-07T01:46:51;19.70;;;13.47;;
6667;SDS011;3370;47.712;9.082;2023-02-07T01:49:19;20.07;;;12.47;;
6667;SDS011;3370;47.712;9.082;2023-02-07T01:51:56;16.60;;;12.53;;
6667;SDS011;3370;47.712;9.082;2023-02-07T01:54:27;22.83;;;14.23;;
6667;SDS011;3370;47.712;9.082;2023-02-07T01:56:58;18.63;;;13.13;;
6667;SDS011;3370;47.712;9.082;2023-02-07T01:59:30;20.60;;;14.10;;
6667;SDS011;3370;47.712;9.082;2023-02-07T02:01:58;19.40;;;13.57;;
6667;SDS011;3370;47.712;9.082;2023-02-07T02:04:27;16.73;;;12.67;;
6667;SDS011;3370;47.712;9.082;2023-02-07T02:06:53;21.77;;;14.03;;
6667;SDS011;3370;47.712;9.082;2023-02-07T02:09:20;18.77;;;14.00;;
6667;SDS011;3370;47.712;9.082;2023-02-07T02:24:12;17.93;;;13.03;;
6667;SDS011;3370;47.712;9.082;2023-02-07T02:27:27;21.30;;;13.67;;
6667;SDS011;3370;47.712;9.082;2023-02-07T02:30:23;20.27;;;13.27;;
6667;SDS011;3370;47.712;9.082;2023-02-07T02:44:28;22.10;;;13.70;;
6667;SDS011;3370;47.712;9.082;2023-02-07T02:47:02;19.37;;;12.80;;
6667;SDS011;3370;47.712;9.082;2023-02-07T02:49:30;22.33;;;13.43;;
6667;SDS011;3370;47.712;9.082;2023-02-07T02:51:58;17.40;;;13.17;;
6667;SDS011;3370;47.712;9.082;2023-02-07T02:54:28;18.67;;;13.20;;
6667;SDS011;3370;47.712;9.082;2023-02-07T02:59:59;22.90;;;12.63;;
6667;SDS011;3370;47.712;9.082;2023-02-07T03:09:43;16.00;;;12.20;;
6667;SDS011;3370;47.712;9.082;2023-02-07T03:12:56;17.83;;;13.20;;
6667;SDS011;3370;47.712;9.082;2023-02-07T03:18:51;20.03;;;13.80;;
6667;SDS011;3370;47.712;9.082;2023-02-07T03:21:31;22.27;;;13.93;;
6667;SDS011;3370;47.712;9.082;2023-02-07T03:24:16;22.57;;;12.97;;
6667;SDS011;3370;47.712;9.082;2023-02-07T03:26:47;23.17;;;13.33;;
6667;SDS011;3370;47.712;9.082;2023-02-07T03:29:16;20.43;;;13.77;;
6667;SDS011;3370;47.712;9.082;2023-02-07T03:31:47;15.17;;;11.90;;
6667;SDS011;3370;47.712;9.082;2023-02-07T03:34:18;22.67;;;13.03;;
6667;SDS011;3370;47.712;9.082;2023-02-07T03:39:38;19.43;;;13.20;;
6667;SDS011;3370;47.712;9.082;2023-02-07T03:42:09;18.83;;;12.23;;
6667;SDS011;3370;47.712;9.082;2023-02-07T03:44:45;24.07;;;14.40;;
6667;SDS011;3370;47.712;9.082;2023-02-07T03:47:15;21.83;;;13.30;;
6667;SDS011;3370;47.712;9.082;2023-02-07T03:49:42;18.53;;;12.47;;
6667;SDS011;3370;47.712;9.082;2023-02-07T03:52:08;17.70;;;13.10;;
6667;SDS011;3370;47.712;9.082;2023-02-07T03:54:34;19.50;;;13.83;;
6667;SDS011;3370;47.712;9.082;2023-02-07T03:57:00;20.63;;;13.27;;
6667;SDS011;3370;47.712;9.082;2023-02-07T03:59:26;18.83;;;11.63;;
6667;SDS011;3370;47.712;9.082;2023-02-07T04:01:52;16.03;;;12.20;;
6667;SDS011;3370;47.712;9.082;2023-02-07T04:04:18;17.97;;;13.30;;
6667;SDS011;3370;47.712;9.082;2023-02-07T04:06:44;21.70;;;13.60;;
6667;SDS011;3370;47.712;9.082;2023-02-07T04:09:10;17.80;;;13.10;;
6667;SDS011;3370;47.712;9.082;2023-02-07T04:11:36;23.00;;;15.50;;
6667;SDS011;3370;47.712;9.082;2023-02-07T04:14:02;16.93;;;12.80;;
6667;SDS011;3370;47.712;9.082;2023-02-07T04:16:28;18.53;;;13.53;;
6667;SDS011;3370;47.712;9.082;2023-02-07T04:18:54;22.10;;;14.13;;
6667;SDS011;3370;47.712;9.082;2023-02-07T04:21:19;20.80;;;13.30;;
6667;SDS011;3370;47.712;9.082;2023-02-07T04:23:45;22.70;;;13.77;;
6667;SDS011;3370;47.712;9.082;2023-02-07T04:26:11;20.00;;;13.47;;
6667;SDS011;3370;47.712;9.082;2023-02-07T04:28:37;18.27;;;13.20;;
6667;SDS011;3370;47.712;9.082;2023-02-07T04:31:03;17.97;;;13.00;;
6667;SDS011;3370;47.712;9.082;2023-02-07T04:33:29;16.60;;;12.83;;
6667;SDS011;3370;47.712;9.082;2023-02-07T04:35:58;21.67;;;12.97;;
6667;SDS011;3370;47.712;9.082;2023-02-07T04:38:27;18.10;;;13.00;;
6667;SDS011;3370;47.712;9.082;2023-02-07T04:41:00;21.03;;;15.00;;
6667;SDS011;3370;47.712;9.082;2023-02-07T04:43:29;17.43;;;13.00;;
6667;SDS011;3370;47.712;9.082;2023-02-07T04:45:56;38.63;;;16.70;;
6667;SDS011;3370;47.712;9.082;2023-02-07T04:48:22;18.17;;;13.87;;
6667;SDS011;3370;47.712;9.082;2023-02-07T04:50:48;21.63;;;13.70;;
6667;SDS011;3370;47.712;9.082;2023-02-07T04:53:14;18.07;;;13.80;;
6667;SDS011;3370;47.712;9.082;2023-02-07T04:55:40;21.73;;;16.00;;
6667;SDS011;3370;47.712;9.082;2023-02-07T04:58:06;20.43;;;15.07;;
6667;SDS011;3370;47.712;9.082;2023-02-07T05:00:32;20.13;;;13.37;;
6667;SDS011;3370;47.712;9.082;2023-02-07T05:02:59;21.07;;;13.67;;
6667;SDS011;3370;47.712;9.082;2023-02-07T05:05:25;17.70;;;14.23;;
6667;SDS011;3370;47.712;9.082;2023-02-07T05:07:51;18.73;;;13.50;;
6667;SDS011;3370;47.712;9.082;2023-02-07T05:10:17;21.60;;;14.77;;
6667;SDS011;3370;47.712;9.082;2023-02-07T05:12:43;20.83;;;15.00;;
6667;SDS011;3370;47.712;9.082;2023-02-07T05:15:08;21.90;;;14.33;;
6667;SDS011;3370;47.712;9.082;2023-02-07T05:17:34;26.40;;;15.70;;
6667;SDS011;3370;47.712;9.082;2023-02-07T05:20:02;23.07;;;15.77;;
6667;SDS011;3370;47.712;9.082;2023-02-07T05:22:30;21.00;;;15.23;;
6667;SDS011;3370;47.712;9.082;2023-02-07T05:24:56;23.87;;;16.80;;
6667;SDS011;3370;47.712;9.082;2023-02-07T05:27:22;20.70;;;15.80;;
6667;SDS011;3370;47.712;9.082;2023-02-07T05:29:48;22.20;;;16.07;;
6667;SDS011;3370;47.712;9.082;2023-02-07T05:32:14;23.17;;;15.47;;
6667;SDS011;3370;47.712;9.082;2023-02-07T05:34:59;26.63;;;16.50;;
6667;SDS011;3370;47.712;9.082;2023-02-07T05:37:25;23.00;;;16.37;;
6667;SDS011;3370;47.712;9.082;2023-02-07T05:39:51;24.97;;;17.20;;
6667;SDS011;3370;47.712;9.082;2023-02-07T05:42:17;24.30;;;17.33;;
6667;SDS011;3370;47.712;9.082;2023-02-07T05:44:43;22.90;;;16.20;;
6667;SDS011;3370;47.712;9.082;2023-02-07T05:47:09;26.67;;;16.87;;
6667;SDS011;3370;47.712;9.082;2023-02-07T05:49:35;24.20;;;16.50;;
6667;SDS011;3370;47.712;9.082;2023-02-07T05:52:03;24.90;;;16.20;;
6667;SDS011;3370;47.712;9.082;2023-02-07T05:54:29;28.70;;;17.40;;
6667;SDS011;3370;47.712;9.082;2023-02-07T05:56:55;23.83;;;16.17;;
6667;SDS011;3370;47.712;9.082;2023-02-07T05:59:21;24.20;;;15.83;;
6667;SDS011;3370;47.712;9.082;2023-02-07T06:01:47;19.47;;;14.10;;
6667;SDS011;3370;47.712;9.082;2023-02-07T06:04:13;20.50;;;15.67;;
6667;SDS011;3370;47.712;9.082;2023-02-07T06:06:39;29.70;;;16.93;;
6667;SDS011;3370;47.712;9.082;2023-02-07T06:09:04;22.43;;;15.97;;
6667;SDS011;3370;47.712;9.082;2023-02-07T06:11:30;23.63;;;15.93;;
6667;SDS011;3370;47.712;9.082;2023-02-07T06:13:56;25.33;;;17.03;;
6667;SDS011;3370;47.712;9.082;2023-02-07T06:16:22;24.23;;;16.00;;
6667;SDS011;3370;47.712;9.082;2023-02-07T06:18:47;19.80;;;15.43;;
6667;SDS011;3370;47.712;9.082;2023-02-07T06:21:13;27.90;;;17.40;;
6667;SDS011;3370;47.712;9.082;2023-02-07T06:23:39;28.43;;;18.50;;
6667;SDS011;3370;47.712;9.082;2023-02-07T06:26:05;24.70;;;17.17;;
6667;SDS011;3370;47.712;9.082;2023-02-07T06:28:31;26.13;;;17.40;;
6667;SDS011;3370;47.712;9.082;2023-02-07T06:30:57;28.77;;;21.53;;
6667;SDS011;3370;47.712;9.082;2023-02-07T06:33:23;31.47;;;19.40;;
6667;SDS011;3370;47.712;9.082;2023-02-07T06:35:48;26.60;;;17.80;;
6667;SDS011;3370;47.712;9.082;2023-02-07T06:38:16;27.60;;;18.20;;
6667;SDS011;3370;47.712;9.082;2023-02-07T06:40:42;28.13;;;18.70;;
6667;SDS011;3370;47.712;9.082;2023-02-07T06:43:09;26.57;;;18.20;;
6667;SDS011;3370;47.712;9.082;2023-02-07T06:45:36;24.30;;;17.30;;
6667;SDS011;3370;47.712;9.082;2023-02-07T06:48:02;24.03;;;18.07;;
6667;SDS011;3370;47.712;9.082;2023-02-07T06:50:28;27.80;;;19.17;;
6667;SDS011;3370;47.712;9.082;2023-02-07T06:52:54;28.17;;;18.90;;
6667;SDS011;3370;47.712;9.082;2023-02-07T06:55:29;27.40;;;18.50;;
6667;SDS011;3370;47.712;9.082;2023-02-07T06:57:57;27.17;;;18.90;;
6667;SDS011;3370;47.712;9.082;2023-02-07T07:00:23;30.10;;;19.20;;
6667;SDS011;3370;47.712;9.082;2023-02-07T07:02:49;26.20;;;20.07;;
6667;SDS011;3370;47.712;9.082;2023-02-07T07:05:15;25.80;;;18.00;;
6667;SDS011;3370;47.712;9.082;2023-02-07T07:07:41;24.60;;;18.03;;
6667;SDS011;3370;47.712;9.082;2023-02-07T07:10:08;26.23;;;19.33;;
6667;SDS011;3370;47.712;9.082;2023-02-07T07:12:34;32.80;;;19.30;;
6667;SDS011;3370;47.712;9.082;2023-02-07T07:15:00;27.90;;;19.20;;
6667;SDS011;3370;47.712;9.082;2023-02-07T07:17:26;28.33;;;18.20;;
6667;SDS011;3370;47.712;9.082;2023-02-07T07:19:52;30.70;;;19.47;;
6667;SDS011;3370;47.712;9.082;2023-02-07T07:22:18;29.57;;;19.03;;
6667;SDS011;3370;47.712;9.082;2023-02-07T07:24:44;31.27;;;19.67;;
6667;SDS011;3370;47.712;9.082;2023-02-07T07:27:11;31.90;;;20.60;;
6667;SDS011;3370;47.712;9.082;2023-02-07T07:29:37;27.77;;;20.27;;
6667;SDS011;3370;47.712;9.082;2023-02-07T07:32:03;27.03;;;19.50;;
6667;SDS011;3370;47.712;9.082;2023-02-07T07:34:29;32.80;;;21.50;;
6667;SDS011;3370;47.712;9.082;2023-02-07T07:36:55;28.80;;;19.57;;
6667;SDS011;3370;47.712;9.082;2023-02-07T07:39:24;28.70;;;18.80;;
6667;SDS011;3370;47.712;9.082;2023-02-07T07:41:50;37.83;;;20.50;;
6667;SDS011;3370;47.712;9.082;2023-02-07T07:44:16;31.57;;;18.97;;
6667;SDS011;3370;47.712;9.082;2023-02-07T07:46:42;34.80;;;19.17;;
6667;SDS011;3370;47.712;9.082;2023-02-07T07:49:08;28.90;;;20.33;;
6667;SDS011;3370;47.712;9.082;2023-02-07T07:51:34;27.07;;;19.00;;
6667;SDS011;3370;47.712;9.082;2023-02-07T07:54:00;28.80;;;20.23;;
6667;SDS011;3370;47.712;9.082;2023-02-07T07:56:26;31.13;;;19.73;;
6667;SDS011;3370;47.712;9.082;2023-02-07T07:58:55;32.17;;;19.20;;
6667;SDS011;3370;47.712;9.082;2023-02-07T08:01:21;29.50;;;19.33;;
6667;SDS011;3370;47.712;9.082;2023-02-07T08:03:47;29.33;;;20.60;;
6667;SDS011;3370;47.712;9.082;2023-02-07T08:06:13;28.30;;;19.90;;
6667;SDS011;3370;47.712;9.082;2023-02-07T08:08:39;27.53;;;19.87;;
6667;SDS011;3370;47.712;9.082;2023-02-07T08:11:05;29.50;;;22.17;;
6667;SDS011;3370;47.712;9.082;2023-02-07T08:13:34;35.30;;;21.20;;
6667;SDS011;3370;47.712;9.082;2023-02-07T08:16:01;28.70;;;19.27;;
6667;SDS011;3370;47.712;9.082;2023-02-07T08:18:28;28.50;;;18.30;;
6667;SDS011;3370;47.712;9.082;2023-02-07T08:20:54;32.80;;;19.37;;
6667;SDS011;3370;47.712;9.082;2023-02-07T08:23:20;34.30;;;21.00;;
6667;SDS011;3370;47.712;9.082;2023-02-07T08:25:46;25.20;;;18.07;;
6667;SDS011;3370;47.712;9.082;2023-02-07T08:28:14;28.20;;;18.17;;
6667;SDS011;3370;47.712;9.082;2023-02-07T08:30:41;31.63;;;20.17;;
6667;SDS011;3370;47.712;9.082;2023-02-07T08:33:07;24.93;;;20.27;;
6667;SDS011;3370;47.712;9.082;2023-02-07T08:35:33;30.13;;;19.83;;
6667;SDS011;3370;47.712;9.082;2023-02-07T08:38:00;27.93;;;18.97;;
6667;SDS011;3370;47.712;9.082;2023-02-07T08:40:26;24.43;;;17.30;;
6667;SDS011;3370;47.712;9.082;2023-02-07T08:42:52;29.23;;;19.63;;
6667;SDS011;3370;47.712;9.082;2023-02-07T08:45:18;27.63;;;19.73;;
6667;SDS011;3370;47.712;9.082;2023-02-07T08:47:44;23.50;;;18.30;;
6667;SDS011;3370;47.712;9.082;2023-02-07T08:50:11;27.60;;;19.57;;
6667;SDS011;3370;47.712;9.082;2023-02-07T08:52:39;26.07;;;17.63;;
6667;SDS011;3370;47.712;9.082;2023-02-07T08:55:05;24.17;;;17.90;;
6667;SDS011;3370;47.712;9.082;2023-02-07T08:57:32;30.87;;;18.30;;
6667;SDS011;3370;47.712;9.082;2023-02-07T08:59:58;24.20;;;16.23;;
6667;SDS011;3370;47.712;9.082;2023-02-07T09:02:25;26.40;;;18.10;;
6667;SDS011;3370;47.712;9.082;2023-02-07T09:04:51;27.43;;;17.70;;
6667;SDS011;3370;47.712;9.082;2023-02-07T09:07:18;29.47;;;19.47;;
6667;SDS011;3370;47.712;9.082;2023-02-07T09:09:44;26.30;;;17.73;;
6667;SDS011;3370;47.712;9.082;2023-02-07T09:12:10;24.73;;;17.83;;
6667;SDS011;3370;47.712;9.082;2023-02-07T09:14:37;25.23;;;16.87;;
6667;SDS011;3370;47.712;9.082;2023-02-07T09:17:03;29.43;;;19.20;;
6667;SDS011;3370;47.712;9.082;2023-02-07T09:19:30;22.47;;;17.27;;
6667;SDS011;3370;47.712;9.082;2023-02-07T09:21:56;22.20;;;17.60;;
6667;SDS011;3370;47.712;9.082;2023-02-07T09:24:22;27.30;;;17.90;;
6667;SDS011;3370;47.712;9.082;2023-02-07T09:26:48;26.60;;;17.90;;
6667;SDS011;3370;47.712;9.082;2023-02-07T09:29:15;27.60;;;18.97;;
6667;SDS011;3370;47.712;9.082;2023-02-07T09:31:41;24.57;;;17.93;;
6667;SDS011;3370;47.712;9.082;2023-02-07T09:34:07;26.90;;;19.37;;
6667;SDS011;3370;47.712;9.082;2023-02-07T09:36:34;26.80;;;19.73;;
6667;SDS011;3370;47.712;9.082;2023-02-07T09:39:01;27.80;;;19.83;;
6667;SDS011;3370;47.712;9.082;2023-02-07T09:44:24;28.53;;;19.47;;
6667;SDS011;3370;47.712;9.082;2023-02-07T09:47:21;23.53;;;17.07;;
6667;SDS011;3370;47.712;9.082;2023-02-07T09:49:56;29.30;;;18.80;;
6667;SDS011;3370;47.712;9.082;2023-02-07T09:55:17;30.37;;;18.97;;
6667;SDS011;3370;47.712;9.082;2023-02-07T09:57:59;23.30;;;17.70;;
6667;SDS011;3370;47.712;9.082;2023-02-07T10:00:35;38.90;;;27.93;;
6667;SDS011;3370;47.712;9.082;2023-02-07T10:03:09;26.23;;;19.60;;
6667;SDS011;3370;47.712;9.082;2023-02-07T10:05:43;29.10;;;19.20;;
6667;SDS011;3370;47.712;9.082;2023-02-07T10:08:17;27.93;;;16.63;;
6667;SDS011;3370;47.712;9.082;2023-02-07T10:10:49;29.20;;;17.17;;
6667;SDS011;3370;47.712;9.082;2023-02-07T10:16:43;26.53;;;17.57;;
6667;SDS011;3370;47.712;9.082;2023-02-07T10:22:50;25.77;;;18.40;;
6667;SDS011;3370;47.712;9.082;2023-02-07T10:28:42;25.10;;;17.33;;
6667;SDS011;3370;47.712;9.082;2023-02-07T10:31:19;22.93;;;17.40;;
6667;SDS011;3370;47.712;9.082;2023-02-07T10:34:32;26.77;;;19.20;;
6667;SDS011;3370;47.712;9.082;2023-02-07T10:36:45;27.17;;;18.50;;
6667;SDS011;3370;47.712;9.082;2023-02-07T10:39:21;24.03;;;19.17;;
6667;SDS011;3370;47.712;9.082;2023-02-07T10:42:02;26.73;;;17.90;;
6667;SDS011;3370;47.712;9.082;2023-02-07T10:44:28;27.87;;;18.40;;
6667;SDS011;3370;47.712;9.082;2023-02-07T10:46:59;26.17;;;17.60;;
6667;SDS011;3370;47.712;9.082;2023-02-07T10:49:29;27.27;;;18.80;;
6667;SDS011;3370;47.712;9.082;2023-02-07T10:52:01;28.07;;;18.47;;
6667;SDS011;3370;47.712;9.082;2023-02-07T10:54:53;31.40;;;20.43;;
6667;SDS011;3370;47.712;9.082;2023-02-07T10:57:26;23.57;;;17.97;;
6667;SDS011;3370;47.712;9.082;2023-02-07T11:00:27;26.43;;;18.63;;
6667;SDS011;3370;47.712;9.082;2023-02-07T11:03:00;27.40;;;17.63;;
6667;SDS011;3370;47.712;9.082;2023-02-07T11:05:31;25.80;;;17.80;;
6667;SDS011;3370;47.712;9.082;2023-02-07T11:10:39;29.73;;;18.77;;
6667;SDS011;3370;47.712;9.082;2023-02-07T11:13:12;28.10;;;19.83;;
6667;SDS011;3370;47.712;9.082;2023-02-07T11:15:48;23.03;;;16.60;;
6667;SDS011;3370;47.712;9.082;2023-02-07T11:21:01;26.80;;;18.80;;
6667;SDS011;3370;47.712;9.082;2023-02-07T11:23:45;29.80;;;19.53;;
6667;SDS011;3370;47.712;9.082;2023-02-07T11:26:12;25.73;;;18.87;;
6667;SDS011;3370;47.712;9.082;2023-02-07T11:28:41;25.67;;;18.40;;
6667;SDS011;3370;47.712;9.082;2023-02-07T11:31:09;28.27;;;19.27;;
6667;SDS011;3370;47.712;9.082;2023-02-07T11:33:39;28.20;;;18.60;;
6667;SDS011;3370;47.712;9.082;2023-02-07T11:36:39;26.10;;;18.60;;
6667;SDS011;3370;47.712;9.082;2023-02-07T11:38:58;26.03;;;19.50;;
6667;SDS011;3370;47.712;9.082;2023-02-07T11:41:26;28.50;;;18.40;;
6667;SDS011;3370;47.712;9.082;2023-02-07T11:44:00;27.30;;;17.87;;
6667;SDS011;3370;47.712;9.082;2023-02-07T11:46:39;24.10;;;17.60;;
6667;SDS011;3370;47.712;9.082;2023-02-07T11:49:28;22.60;;;18.10;;
6667;SDS011;3370;47.712;9.082;2023-02-07T11:52:04;21.60;;;17.83;;
6667;SDS011;3370;47.712;9.082;2023-02-07T11:54:31;20.37;;;16.77;;
6667;SDS011;3370;47.712;9.082;2023-02-07T11:57:03;21.27;;;17.10;;
6667;SDS011;3370;47.712;9.082;2023-02-07T11:59:31;23.63;;;18.53;;
6667;SDS011;3370;47.712;9.082;2023-02-07T12:01:59;25.23;;;18.80;;
6667;SDS011;3370;47.712;9.082;2023-02-07T12:04:40;20.97;;;17.60;;
6667;SDS011;3370;47.712;9.082;2023-02-07T12:07:27;21.83;;;17.60;;
6667;SDS011;3370;47.712;9.082;2023-02-07T12:10:04;20.70;;;18.17;;
6667;SDS011;3370;47.712;9.082;2023-02-07T12:12:41;20.30;;;17.40;;
6667;SDS011;3370;47.712;9.082;2023-02-07T12:15:22;20.10;;;17.47;;
6667;SDS011;3370;47.712;9.082;2023-02-07T12:20:36;21.00;;;17.90;;
6667;SDS011;3370;47.712;9.082;2023-02-07T12:26:12;25.90;;;17.63;;
6667;SDS011;3370;47.712;9.082;2023-02-07T12:43:31;20.47;;;18.07;;
6667;SDS011;3370;47.712;9.082;2023-02-07T12:46:05;18.80;;;16.80;;
6667;SDS011;3370;47.712;9.082;2023-02-07T12:49:26;22.07;;;17.30;;
6667;SDS011;3370;47.712;9.082;2023-02-07T12:55:16;25.00;;;17.57;;
6667;SDS011;3370;47.712;9.082;2023-02-07T12:58:04;19.43;;;17.50;;
6667;SDS011;3370;47.712;9.082;2023-02-07T13:01:16;45.70;;;38.37;;
6667;SDS011;3370;47.712;9.082;2023-02-07T13:10:22;21.23;;;17.77;;
6667;SDS011;3370;47.712;9.082;2023-02-07T13:13:17;20.00;;;17.80;;
6667;SDS011;3370;47.712;9.082;2023-02-07T13:16:32;21.67;;;18.90;;
6667;SDS011;3370;47.712;9.082;2023-02-07T13:22:17;20.40;;;18.37;;
6667;SDS011;3370;47.712;9.082;2023-02-07T13:25:11;19.73;;;17.63;;
6667;SDS011;3370;47.712;9.082;2023-02-07T13:27:45;20.43;;;17.80;;
6667;SDS011;3370;47.712;9.082;2023-02-07T13:30:14;20.13;;;18.17;;
6667;SDS011;3370;47.712;9.082;2023-02-07T13:32:42;22.77;;;18.90;;
6667;SDS011;3370;47.712;9.082;2023-02-07T13:35:22;21.20;;;19.00;;
6667;SDS011;3370;47.712;9.082;2023-02-07T13:37:54;20.90;;;18.63;;
6667;SDS011;3370;47.712;9.082;2023-02-07T13:43:58;23.57;;;18.67;;
6667;SDS011;3370;47.712;9.082;2023-02-07T13:46:45;21.73;;;17.50;;
6667;SDS011;3370;47.712;9.082;2023-02-07T13:52:11;22.23;;;18.57;;
6667;SDS011;3370;47.712;9.082;2023-02-07T13:57:58;20.23;;;17.37;;
6667;SDS011;3370;47.712;9.082;2023-02-07T14:03:27;22.63;;;18.27;;
6667;SDS011;3370;47.712;9.082;2023-02-07T14:14:35;20.27;;;17.97;;
6667;SDS011;3370;47.712;9.082;2023-02-07T14:17:05;19.67;;;17.10;;
6667;SDS011;3370;47.712;9.082;2023-02-07T14:19:59;19.23;;;17.13;;
6667;SDS011;3370;47.712;9.082;2023-02-07T14:33:28;18.70;;;16.63;;
6667;SDS011;3370;47.712;9.082;2023-02-07T14:36:01;21.07;;;17.57;;
6667;SDS011;3370;47.712;9.082;2023-02-07T14:41:35;21.60;;;17.13;;
6667;SDS011;3370;47.712;9.082;2023-02-07T14:44:04;22.80;;;17.47;;
6667;SDS011;3370;47.712;9.082;2023-02-07T14:46:46;21.03;;;17.10;;
6667;SDS011;3370;47.712;9.082;2023-02-07T14:49:25;25.87;;;17.53;;
6667;SDS011;3370;47.712;9.082;2023-02-07T14:52:14;23.73;;;17.40;;
6667;SDS011;3370;47.712;9.082;2023-02-07T14:54:52;25.10;;;18.43;;
6667;SDS011;3370;47.712;9.082;2023-02-07T14:57:34;18.90;;;16.90;;
6667;SDS011;3370;47.712;9.082;2023-02-07T15:02:58;28.00;;;18.97;;
6667;SDS011;3370;47.712;9.082;2023-02-07T15:10:29;23.30;;;18.13;;
6667;SDS011;3370;47.712;9.082;2023-02-07T15:12:57;19.30;;;16.03;;
6667;SDS011;3370;47.712;9.082;2023-02-07T15:15:26;22.90;;;17.60;;
6667;SDS011;3370;47.712;9.082;2023-02-07T15:18:16;21.50;;;17.87;;
6667;SDS011;3370;47.712;9.082;2023-02-07T15:21:03;21.97;;;17.90;;
6667;SDS011;3370;47.712;9.082;2023-02-07T15:23:30;23.43;;;16.33;;
6667;SDS011;3370;47.712;9.082;2023-02-07T15:25:57;24.67;;;17.83;;
6667;SDS011;3370;47.712;9.082;2023-02-07T15:28:30;20.53;;;16.60;;
6667;SDS011;3370;47.712;9.082;2023-02-07T15:33:39;22.10;;;17.10;;
6667;SDS011;3370;47.712;9.082;2023-02-07T15:36:25;22.43;;;16.50;;
6667;SDS011;3370;47.712;9.082;2023-02-07T15:38:56;22.97;;;16.70;;
6667;SDS011;3370;47.712;9.082;2023-02-07T15:41:23;23.00;;;16.90;;
6667;SDS011;3370;47.712;9.082;2023-02-07T15:43:55;21.70;;;16.23;;
6667;SDS011;3370;47.712;9.082;2023-02-07T15:46:26;19.13;;;16.37;;
6667;SDS011;3370;47.712;9.082;2023-02-07T15:49:07;23.90;;;16.63;;
6667;SDS011;3370;47.712;9.082;2023-02-07T15:51:35;19.53;;;16.57;;
6667;SDS011;3370;47.712;9.082;2023-02-07T15:54:05;20.40;;;16.13;;
6667;SDS011;3370;47.712;9.082;2023-02-07T15:56:39;21.73;;;16.80;;
6667;SDS011;3370;47.712;9.082;2023-02-07T15:59:15;20.03;;;16.27;;
6667;SDS011;3370;47.712;9.082;2023-02-07T16:01:52;22.97;;;17.27;;
6667;SDS011;3370;47.712;9.082;2023-02-07T16:04:24;22.17;;;16.90;;
6667;SDS011;3370;47.712;9.082;2023-02-07T16:06:54;22.87;;;17.20;;
6667;SDS011;3370;47.712;9.082;2023-02-07T16:09:34;21.80;;;17.47;;
6667;SDS011;3370;47.712;9.082;2023-02-07T16:14:47;24.47;;;18.00;;
6667;SDS011;3370;47.712;9.082;2023-02-07T16:17:22;28.13;;;17.30;;
6667;SDS011;3370;47.712;9.082;2023-02-07T16:19:49;26.00;;;18.40;;
6667;SDS011;3370;47.712;9.082;2023-02-07T16:22:17;21.87;;;16.87;;
6667;SDS011;3370;47.712;9.082;2023-02-07T16:24:54;23.70;;;17.30;;
6667;SDS011;3370;47.712;9.082;2023-02-07T16:27:23;23.93;;;17.63;;
6667;SDS011;3370;47.712;9.082;2023-02-07T16:29:54;24.90;;;18.80;;
6667;SDS011;3370;47.712;9.082;2023-02-07T16:32:20;24.30;;;18.80;;
6667;SDS011;3370;47.712;9.082;2023-02-07T16:34:48;22.60;;;18.50;;
6667;SDS011;3370;47.712;9.082;2023-02-07T16:37:14;25.60;;;18.77;;
6667;SDS011;3370;47.712;9.082;2023-02-07T16:39:40;27.67;;;18.97;;
6667;SDS011;3370;47.712;9.082;2023-02-07T16:42:06;26.50;;;18.80;;
6667;SDS011;3370;47.712;9.082;2023-02-07T16:44:38;29.00;;;19.07;;
6667;SDS011;3370;47.712;9.082;2023-02-07T16:47:03;28.80;;;19.90;;
6667;SDS011;3370;47.712;9.082;2023-02-07T16:49:30;29.57;;;19.50;;
6667;SDS011;3370;47.712;9.082;2023-02-07T16:51:57;27.07;;;18.80;;
6667;SDS011;3370;47.712;9.082;2023-02-07T16:54:23;25.33;;;19.73;;
6667;SDS011;3370;47.712;9.082;2023-02-07T16:56:51;25.57;;;18.53;;
6667;SDS011;3370;47.712;9.082;2023-02-07T16:59:21;26.23;;;19.10;;
6667;SDS011;3370;47.712;9.082;2023-02-07T17:01:48;23.93;;;17.93;;
6667;SDS011;3370;47.712;9.082;2023-02-07T17:04:16;29.10;;;19.70;;
6667;SDS011;3370;47.712;9.082;2023-02-07T17:06:43;25.50;;;18.60;;
6667;SDS011;3370;47.712;9.082;2023-02-07T17:09:12;24.83;;;19.10;;
6667;SDS011;3370;47.712;9.082;2023-02-07T17:11:45;26.30;;;17.97;;
6667;SDS011;3370;47.712;9.082;2023-02-07T17:14:11;27.50;;;20.13;;
6667;SDS011;3370;47.712;9.082;2023-02-07T17:16:36;26.00;;;19.90;;
6667;SDS011;3370;47.712;9.082;2023-02-07T17:19:16;30.10;;;19.93;;
6667;SDS011;3370;47.712;9.082;2023-02-07T17:21:47;25.10;;;18.00;;
6667;SDS011;3370;47.712;9.082;2023-02-07T17:24:14;25.03;;;18.87;;
6667;SDS011;3370;47.712;9.082;2023-02-07T17:26:41;30.73;;;18.77;;
6667;SDS011;3370;47.712;9.082;2023-02-07T17:29:13;26.10;;;19.57;;
6667;SDS011;3370;47.712;9.082;2023-02-07T17:31:41;30.37;;;19.80;;
6667;SDS011;3370;47.712;9.082;2023-02-07T17:34:08;26.77;;;20.30;;